Time,TemperatureF,DewpointF,PressureIn,WindDirection,WindDirectionDegrees,WindSpeedMPH,WindSpeedGustMPH,Humidity,HourlyPrecipIn,Conditions,Clouds,dailyrainin,SolarRadiationWatts/m^2,SoftwareType,DateUTC
2013-05-07 00:02:00,57.0,53.0,-100.00,SW,232,0.0,0.0,85,0.00,,,0.00,0.000000,,2013-05-07 05:02:00,
2013-05-07 00:12:00,57.0,53.0,-100.00,SW,232,0.0,0.0,85,0.00,,,0.00,0.000000,,2013-05-07 05:12:00,
2013-05-07 00:22:00,57.0,53.0,-100.00,SW,232,0.0,0.0,85,0.00,,,0.00,0.000000,,2013-05-07 05:22:00,
2013-05-07 00:32:00,61.0,51.0,-100.00,ENE,66,2.0,10.0,70,0.00,,,0.00,0.000000,,2013-05-07 05:32:00,
2013-05-07 00:52:00,61.0,51.0,-100.00,ENE,66,2.0,10.0,70,0.00,,,0.00,0.000000,,2013-05-07 05:52:00,
2013-05-07 01:02:00,61.0,51.0,-100.00,ENE,66,2.0,10.0,70,0.00,,,0.00,0.000000,,2013-05-07 06:02:00,
2013-05-07 01:12:00,61.0,51.0,-100.00,ENE,66,2.0,10.0,70,0.00,,,0.00,0.000000,,2013-05-07 06:12:00,
2013-05-07 01:22:00,61.0,51.0,-100.00,ENE,66,2.0,10.0,70,0.00,,,0.00,0.000000,,2013-05-07 06:22:00,
2013-05-07 01:52:00,58.0,52.0,-100.00,NE,56,0.0,3.0,80,0.00,,,0.00,0.000000,,2013-05-07 06:52:00,
2013-05-07 02:02:00,58.0,52.0,-100.00,NE,56,0.0,3.0,80,0.00,,,0.00,0.000000,,2013-05-07 07:02:00,
2013-05-07 02:11:00,58.0,52.0,-100.00,NE,56,0.0,3.0,80,0.00,,,0.00,0.000000,,2013-05-07 07:11:00,
2013-05-07 02:22:00,58.0,52.0,-100.00,NE,56,0.0,3.0,80,0.00,,,0.00,0.000000,,2013-05-07 07:22:00,
2013-05-07 02:31:00,58.0,52.0,-100.00,NE,56,0.0,3.0,80,0.00,,,0.00,0.000000,,2013-05-07 07:31:00,
2013-05-07 02:52:00,58.0,52.0,-100.00,NE,56,2.0,5.0,80,0.00,,,0.00,0.000000,,2013-05-07 07:52:00,
2013-05-07 03:02:00,58.0,52.0,-100.00,NE,56,2.0,5.0,80,0.00,,,0.00,0.000000,,2013-05-07 08:02:00,
2013-05-07 03:11:00,58.0,52.0,-100.00,NE,56,2.0,5.0,80,0.00,,,0.00,0.000000,,2013-05-07 08:11:00,
2013-05-07 03:21:00,58.0,52.0,-100.00,NE,56,2.0,5.0,80,0.00,,,0.00,0.000000,,2013-05-07 08:21:00,
2013-05-07 03:31:00,58.0,52.0,-100.00,NE,56,2.0,5.0,80,0.00,,,0.00,0.000000,,2013-05-07 08:31:00,
2013-05-07 03:32:00,55.0,52.0,-100.00,West,276,0.0,3.0,88,0.00,,,0.00,0.000000,,2013-05-07 08:32:00,
2013-05-07 03:52:00,55.0,52.0,-100.00,West,276,0.0,3.0,88,0.00,,,0.00,0.000000,,2013-05-07 08:52:00,
2013-05-07 04:01:00,55.0,52.0,-100.00,West,276,0.0,3.0,88,0.00,,,0.00,0.000000,,2013-05-07 09:01:00,
2013-05-07 04:11:00,55.0,52.0,-100.00,West,276,0.0,3.0,88,0.00,,,0.00,0.000000,,2013-05-07 09:11:00,
2013-05-07 04:22:00,55.0,52.0,-100.00,West,276,0.0,3.0,88,0.00,,,0.00,0.000000,,2013-05-07 09:22:00,
2013-05-07 04:32:00,53.0,50.0,-100.00,West,259,0.0,0.0,90,0.00,,,0.00,0.000000,,2013-05-07 09:32:00,
2013-05-07 04:52:00,53.0,50.0,-100.00,West,259,0.0,0.0,90,0.00,,,0.00,0.000000,,2013-05-07 09:52:00,
2013-05-07 05:03:00,53.0,50.0,-100.00,West,259,0.0,0.0,90,0.00,,,0.00,0.000000,,2013-05-07 10:03:00,
2013-05-07 05:12:00,53.0,50.0,-100.00,West,259,0.0,0.0,90,0.00,,,0.00,0.000000,,2013-05-07 10:12:00,
2013-05-07 05:23:00,53.0,50.0,-100.00,West,259,0.0,0.0,90,0.00,,,0.00,0.000000,,2013-05-07 10:23:00,
2013-05-07 05:32:00,54.0,51.0,-100.00,North,5,0.0,0.0,91,0.00,,,0.00,0.000000,,2013-05-07 10:32:00,
2013-05-07 05:52:00,54.0,51.0,-100.00,North,5,0.0,0.0,91,0.00,,,0.00,0.000000,,2013-05-07 10:52:00,
2013-05-07 06:02:00,54.0,51.0,-100.00,North,5,0.0,0.0,91,0.00,,,0.00,0.000000,,2013-05-07 11:02:00,
2013-05-07 06:12:00,54.0,51.0,-100.00,North,5,0.0,0.0,91,0.00,,,0.00,0.000000,,2013-05-07 11:12:00,
2013-05-07 06:22:00,54.0,51.0,-100.00,North,5,0.0,0.0,91,0.00,,,0.00,0.000000,,2013-05-07 11:22:00,
2013-05-07 06:32:00,54.0,51.0,-100.00,NE,54,0.0,3.0,91,0.00,,,0.00,2.000000,,2013-05-07 11:32:00,
2013-05-07 06:52:00,54.0,51.0,-100.00,NE,54,0.0,3.0,91,0.00,,,0.00,2.000000,,2013-05-07 11:52:00,
2013-05-07 07:02:00,54.0,51.0,-100.00,NE,54,0.0,3.0,91,0.00,,,0.00,2.000000,,2013-05-07 12:02:00,
2013-05-07 07:11:00,54.0,51.0,-100.00,NE,54,0.0,3.0,91,0.00,,,0.00,2.000000,,2013-05-07 12:11:00,
2013-05-07 07:21:00,54.0,51.0,-100.00,NE,54,0.0,3.0,91,0.00,,,0.00,2.000000,,2013-05-07 12:21:00,
2013-05-07 07:32:00,60.0,56.0,-100.00,West,278,0.0,2.0,88,0.00,,,0.00,139.000000,,2013-05-07 12:32:00,
2013-05-07 07:52:00,60.0,56.0,-100.00,West,278,0.0,2.0,88,0.00,,,0.00,139.000000,,2013-05-07 12:52:00,
2013-05-07 08:02:00,60.0,56.0,-100.00,West,278,0.0,2.0,88,0.00,,,0.00,139.000000,,2013-05-07 13:02:00,
2013-05-07 08:11:00,60.0,56.0,-100.00,West,278,0.0,2.0,88,0.00,,,0.00,139.000000,,2013-05-07 13:11:00,
2013-05-07 08:21:00,60.0,56.0,-100.00,West,278,0.0,2.0,88,0.00,,,0.00,139.000000,,2013-05-07 13:21:00,
2013-05-07 08:32:00,69.0,56.0,-100.00,SW,216,1.0,4.0,63,0.00,,,0.00,385.000000,,2013-05-07 13:32:00,
2013-05-07 08:52:00,69.0,56.0,-100.00,SW,216,1.0,4.0,63,0.00,,,0.00,385.000000,,2013-05-07 13:52:00,
2013-05-07 09:02:00,69.0,56.0,-100.00,SW,216,1.0,4.0,63,0.00,,,0.00,385.000000,,2013-05-07 14:02:00,
2013-05-07 09:11:00,69.0,56.0,-100.00,SW,216,1.0,4.0,63,0.00,,,0.00,385.000000,,2013-05-07 14:11:00,
2013-05-07 09:21:00,69.0,56.0,-100.00,SW,216,1.0,4.0,63,0.00,,,0.00,385.000000,,2013-05-07 14:21:00,
2013-05-07 09:32:00,73.0,51.0,-100.00,NNE,33,2.0,4.0,46,0.00,,,0.00,599.000000,,2013-05-07 14:32:00,
2013-05-07 09:52:00,73.0,51.0,-100.00,NNE,33,2.0,4.0,46,0.00,,,0.00,599.000000,,2013-05-07 14:52:00,
2013-05-07 10:01:00,73.0,51.0,-100.00,NNE,33,2.0,4.0,46,0.00,,,0.00,599.000000,,2013-05-07 15:01:00,
2013-05-07 10:12:00,73.0,51.0,-100.00,NNE,33,2.0,4.0,46,0.00,,,0.00,599.000000,,2013-05-07 15:12:00,
2013-05-07 10:21:00,73.0,51.0,-100.00,NNE,33,2.0,4.0,46,0.00,,,0.00,599.000000,,2013-05-07 15:21:00,
2013-05-07 13:01:00,78.0,50.0,-100.00,SW,232,3.0,8.0,38,-99.99,,,0.00,988.000000,,2013-05-07 18:01:00,
2013-05-07 13:11:00,78.0,50.0,-100.00,SW,232,3.0,8.0,38,-99.99,,,0.00,988.000000,,2013-05-07 18:11:00,
2013-05-07 13:21:00,78.0,50.0,-100.00,SW,232,3.0,8.0,38,-99.99,,,0.00,988.000000,,2013-05-07 18:21:00,
2013-05-07 13:31:00,78.0,50.0,-100.00,SW,232,3.0,8.0,38,-99.99,,,0.00,988.000000,,2013-05-07 18:31:00,
2013-05-07 13:32:00,80.0,50.0,-100.00,WNW,301,4.0,9.0,35,0.00,,,0.00,1074.000000,,2013-05-07 18:32:00,
2013-05-07 13:52:00,80.0,50.0,-100.00,WNW,301,4.0,9.0,35,0.00,,,0.00,1074.000000,,2013-05-07 18:52:00,
2013-05-07 14:02:00,80.0,50.0,-100.00,WNW,301,4.0,9.0,35,0.00,,,0.00,1074.000000,,2013-05-07 19:02:00,
2013-05-07 14:11:00,80.0,50.0,-100.00,WNW,301,4.0,9.0,35,0.00,,,0.00,1074.000000,,2013-05-07 19:11:00,
2013-05-07 14:21:00,80.0,50.0,-100.00,WNW,301,4.0,9.0,35,0.00,,,0.00,1074.000000,,2013-05-07 19:21:00,
2013-05-07 14:32:00,81.0,51.0,-100.00,West,261,5.0,10.0,35,0.00,,,0.00,845.000000,,2013-05-07 19:32:00,
2013-05-07 14:52:00,81.0,51.0,-100.00,West,261,5.0,10.0,35,0.00,,,0.00,845.000000,,2013-05-07 19:52:00,
2013-05-07 15:02:00,81.0,51.0,-100.00,West,261,5.0,10.0,35,0.00,,,0.00,845.000000,,2013-05-07 20:02:00,
2013-05-07 15:12:00,81.0,51.0,-100.00,West,261,5.0,10.0,35,0.00,,,0.00,845.000000,,2013-05-07 20:12:00,
2013-05-07 15:22:00,81.0,51.0,-100.00,West,261,5.0,10.0,35,0.00,,,0.00,845.000000,,2013-05-07 20:22:00,
2013-05-07 15:32:00,82.0,47.0,-100.00,West,269,8.0,16.0,30,0.00,,,0.00,914.000000,,2013-05-07 20:32:00,
2013-05-07 15:52:00,82.0,47.0,-100.00,West,269,8.0,16.0,30,0.00,,,0.00,914.000000,,2013-05-07 20:52:00,
2013-05-07 16:01:00,82.0,47.0,-100.00,West,269,8.0,16.0,30,0.00,,,0.00,914.000000,,2013-05-07 21:01:00,
2013-05-07 16:11:00,82.0,47.0,-100.00,West,269,8.0,16.0,30,0.00,,,0.00,914.000000,,2013-05-07 21:11:00,
2013-05-07 16:22:00,82.0,47.0,-100.00,West,269,8.0,16.0,30,0.00,,,0.00,914.000000,,2013-05-07 21:22:00,
2013-05-07 16:32:00,81.0,48.0,-100.00,WSW,251,6.0,15.0,32,0.00,,,0.00,758.000000,,2013-05-07 21:32:00,
2013-05-07 16:53:00,81.0,48.0,-100.00,WSW,251,6.0,15.0,32,0.00,,,0.00,758.000000,,2013-05-07 21:53:00,
2013-05-07 17:02:00,81.0,48.0,-100.00,WSW,251,6.0,15.0,32,0.00,,,0.00,758.000000,,2013-05-07 22:02:00,
2013-05-07 17:13:00,81.0,48.0,-100.00,WSW,251,6.0,15.0,32,0.00,,,0.00,758.000000,,2013-05-07 22:13:00,
2013-05-07 17:22:00,81.0,48.0,-100.00,WSW,251,6.0,15.0,32,0.00,,,0.00,758.000000,,2013-05-07 22:22:00,
2013-05-07 17:32:00,80.0,50.0,-100.00,NNW,334,2.0,10.0,35,0.00,,,0.00,551.000000,,2013-05-07 22:32:00,
2013-05-07 17:52:00,80.0,50.0,-100.00,NNW,334,2.0,10.0,35,0.00,,,0.00,551.000000,,2013-05-07 22:52:00,
2013-05-07 18:02:00,80.0,50.0,-100.00,NNW,334,2.0,10.0,35,0.00,,,0.00,551.000000,,2013-05-07 23:02:00,
2013-05-07 18:12:00,80.0,50.0,-100.00,NNW,334,2.0,10.0,35,0.00,,,0.00,551.000000,,2013-05-07 23:12:00,
2013-05-07 18:21:00,80.0,50.0,-100.00,NNW,334,2.0,10.0,35,0.00,,,0.00,551.000000,,2013-05-07 23:21:00,
2013-05-07 18:32:00,82.0,52.0,-100.00,NNE,22,1.0,6.0,36,0.00,,,0.00,296.000000,,2013-05-07 23:32:00,
2013-05-07 18:52:00,82.0,52.0,-100.00,NNE,22,1.0,6.0,36,0.00,,,0.00,296.000000,,2013-05-07 23:52:00,
2013-05-07 19:02:00,82.0,52.0,-100.00,NNE,22,1.0,6.0,36,0.00,,,0.00,296.000000,,2013-05-08 00:02:00,
2013-05-07 19:12:00,82.0,52.0,-100.00,NNE,22,1.0,6.0,36,0.00,,,0.00,296.000000,,2013-05-08 00:12:00,
2013-05-07 19:21:00,82.0,52.0,-100.00,NNE,22,1.0,6.0,36,0.00,,,0.00,296.000000,,2013-05-08 00:21:00,
2013-05-07 19:32:00,75.0,53.0,-100.00,NNE,23,0.0,4.0,47,0.00,,,0.00,128.000000,,2013-05-08 00:32:00,
2013-05-07 19:52:00,75.0,53.0,-100.00,NNE,23,0.0,4.0,47,0.00,,,0.00,128.000000,,2013-05-08 00:52:00,
2013-05-07 20:02:00,75.0,53.0,-100.00,NNE,23,0.0,4.0,47,0.00,,,0.00,128.000000,,2013-05-08 01:02:00,
2013-05-07 20:11:00,75.0,53.0,-100.00,NNE,23,0.0,4.0,47,0.00,,,0.00,128.000000,,2013-05-08 01:11:00,
2013-05-07 20:21:00,75.0,53.0,-100.00,NNE,23,0.0,4.0,47,0.00,,,0.00,128.000000,,2013-05-08 01:21:00,
2013-05-07 20:32:00,68.0,57.0,-100.00,NNE,18,0.0,3.0,67,0.00,,,0.00,7.000000,,2013-05-08 01:32:00,
2013-05-07 20:52:00,68.0,57.0,-100.00,NNE,18,0.0,3.0,67,0.00,,,0.00,7.000000,,2013-05-08 01:52:00,
2013-05-07 21:02:00,68.0,57.0,-100.00,NNE,18,0.0,3.0,67,0.00,,,0.00,7.000000,,2013-05-08 02:02:00,
2013-05-07 21:12:00,68.0,57.0,-100.00,NNE,18,0.0,3.0,67,0.00,,,0.00,7.000000,,2013-05-08 02:12:00,
2013-05-07 21:22:00,68.0,57.0,-100.00,NNE,18,0.0,3.0,67,0.00,,,0.00,7.000000,,2013-05-08 02:22:00,
2013-05-07 21:32:00,63.0,57.0,-100.00,SSW,201,0.0,2.0,80,0.00,,,0.00,0.000000,,2013-05-08 02:32:00,
2013-05-07 21:52:00,63.0,57.0,-100.00,SSW,201,0.0,2.0,80,0.00,,,0.00,0.000000,,2013-05-08 02:52:00,
2013-05-07 22:02:00,63.0,57.0,-100.00,SSW,201,0.0,2.0,80,0.00,,,0.00,0.000000,,2013-05-08 03:02:00,
2013-05-07 22:11:00,63.0,57.0,-100.00,SSW,201,0.0,2.0,80,0.00,,,0.00,0.000000,,2013-05-08 03:11:00,
2013-05-07 22:21:00,63.0,57.0,-100.00,SSW,201,0.0,2.0,80,0.00,,,0.00,0.000000,,2013-05-08 03:21:00,
2013-05-07 22:32:00,61.0,55.0,-100.00,NE,44,0.0,3.0,80,0.00,,,0.00,0.000000,,2013-05-08 03:32:00,
2013-05-07 22:52:00,61.0,55.0,-100.00,NE,44,0.0,3.0,80,0.00,,,0.00,0.000000,,2013-05-08 03:52:00,
2013-05-07 23:02:00,61.0,55.0,-100.00,NE,44,0.0,3.0,80,0.00,,,0.00,0.000000,,2013-05-08 04:02:00,
2013-05-07 23:13:00,61.0,55.0,-100.00,NE,44,0.0,3.0,80,0.00,,,0.00,0.000000,,2013-05-08 04:13:00,
2013-05-07 23:23:00,61.0,55.0,-100.00,NE,44,0.0,3.0,80,0.00,,,0.00,0.000000,,2013-05-08 04:23:00,
2013-05-07 23:32:00,66.0,54.0,-100.00,East,91,2.0,4.0,66,0.00,,,-99.99,0.000000,,2013-05-08 04:32:00,
2013-05-07 23:53:00,66.0,54.0,-100.00,East,91,2.0,4.0,66,0.00,,,-99.99,0.000000,,2013-05-08 04:53:00,